createdAt,value
2023-01-03T00:00:17.695Z,10.10
2023-01-03T00:01:17.628Z,10.09
2023-01-03T00:02:17.760Z,10.06
2023-01-03T00:03:17.645Z,10.06
2023-01-03T00:04:17.692Z,10.01
2023-01-03T00:05:17.658Z,10.01
2023-01-03T00:06:17.590Z,10.02
2023-01-03T00:07:17.600Z,9.99
2023-01-03T00:08:17.664Z,9.99
2023-01-03T00:09:17.565Z,9.99
2023-01-03T00:10:17.570Z,9.99
2023-01-03T00:11:17.530Z,10.01
2023-01-03T00:12:17.537Z,10.01
2023-01-03T00:13:17.521Z,10.02
2023-01-03T00:14:17.538Z,10.04
2023-01-03T00:15:17.486Z,10.04
2023-01-03T00:16:17.564Z,10.02
2023-01-03T00:17:17.567Z,10.02
2023-01-03T00:18:17.484Z,10.04
2023-01-03T00:19:17.442Z,10.04
2023-01-03T00:20:17.445Z,10.04
2023-01-03T00:21:17.427Z,10.04
2023-01-03T00:22:17.439Z,10.02
2023-01-03T00:23:17.404Z,10.02
2023-01-03T00:24:17.429Z,10.02
2023-01-03T00:25:17.405Z,10.01
2023-01-03T00:26:17.372Z,9.99
2023-01-03T00:27:17.380Z,10.01
2023-01-03T00:28:17.384Z,9.99
2023-01-03T00:29:17.379Z,9.96
2023-01-03T00:30:17.344Z,9.98
2023-01-03T00:31:17.371Z,9.99
2023-01-03T00:32:17.315Z,9.98
2023-01-03T00:33:17.316Z,9.98
2023-01-03T00:34:17.305Z,9.98
2023-01-03T00:35:17.312Z,9.98
2023-01-03T00:36:17.280Z,9.99
2023-01-03T00:37:17.260Z,9.99
2023-01-03T00:38:17.270Z,9.96
2023-01-03T00:39:17.279Z,9.98
2023-01-03T00:40:17.266Z,9.99
2023-01-03T00:41:17.312Z,9.99
2023-01-03T00:42:17.318Z,10.02
2023-01-03T00:43:17.211Z,10.01
2023-01-03T00:44:17.200Z,9.98
2023-01-03T00:45:19.944Z,9.98
2023-01-03T00:46:17.240Z,9.95
2023-01-03T00:47:17.159Z,9.96
2023-01-03T00:48:17.178Z,9.96
2023-01-03T00:49:17.161Z,9.96
2023-01-03T00:50:17.142Z,9.93
2023-01-03T00:51:17.123Z,9.93
2023-01-03T00:52:17.121Z,9.93
2023-01-03T00:53:17.104Z,9.95
2023-01-03T00:54:17.094Z,9.93
2023-01-03T00:55:17.108Z,9.93
2023-01-03T00:56:17.081Z,9.93
2023-01-03T00:57:17.099Z,9.96
2023-01-03T00:58:17.063Z,9.95
2023-01-03T00:59:17.057Z,9.96
2023-01-03T01:00:17.033Z,9.96
2023-01-03T01:01:17.132Z,9.93
2023-01-03T01:02:17.302Z,9.95
2023-01-03T01:03:17.227Z,9.92
2023-01-03T01:04:16.984Z,9.92
2023-01-03T01:05:16.988Z,9.89
2023-01-03T01:06:17.006Z,9.86
2023-01-03T01:07:16.954Z,9.85
2023-01-03T01:08:16.953Z,9.83
2023-01-03T01:09:16.934Z,9.81
2023-01-03T01:10:16.939Z,9.80
2023-01-03T01:11:16.929Z,9.75
2023-01-03T01:12:16.906Z,9.74
2023-01-03T01:13:16.914Z,9.74
2023-01-03T01:14:16.884Z,9.71
2023-01-03T01:15:16.863Z,9.71
2023-01-03T01:16:16.896Z,9.71
2023-01-03T01:17:22.477Z,9.70
2023-01-03T01:18:16.865Z,9.70
2023-01-03T01:19:16.852Z,9.70
2023-01-03T01:20:16.818Z,9.68
2023-01-03T01:21:16.819Z,9.67
2023-01-03T01:22:16.819Z,9.68
2023-01-03T01:23:16.939Z,9.67
2023-01-03T01:24:18.237Z,9.65
2023-01-03T01:25:16.754Z,9.65
2023-01-03T01:26:16.776Z,9.65
2023-01-03T01:27:16.757Z,9.62
2023-01-03T01:28:16.758Z,9.60
2023-01-03T01:29:16.728Z,9.60
2023-01-03T01:30:22.750Z,9.60
2023-01-03T01:31:16.804Z,9.59
2023-01-03T01:32:16.697Z,9.58
2023-01-03T01:33:16.697Z,9.59
2023-01-03T01:34:16.682Z,9.58
2023-01-03T01:35:16.656Z,9.56
2023-01-03T01:36:16.650Z,9.56
2023-01-03T01:37:16.638Z,9.56
2023-01-03T01:38:16.654Z,9.56
2023-01-03T01:39:16.635Z,9.55
2023-01-03T01:40:16.621Z,9.53
2023-01-03T01:41:16.593Z,9.52
2023-01-03T01:42:19.705Z,9.50
2023-01-03T01:43:16.592Z,9.50
2023-01-03T01:44:16.615Z,9.49
2023-01-03T01:45:16.572Z,9.44
2023-01-03T01:46:16.606Z,9.44
2023-01-03T01:47:16.583Z,9.41
2023-01-03T01:48:16.536Z,9.41
2023-01-03T01:49:16.525Z,9.42
2023-01-03T01:50:16.507Z,9.40
2023-01-03T01:51:16.491Z,9.40
2023-01-03T01:52:16.514Z,9.37
2023-01-03T01:53:16.486Z,9.35
2023-01-03T01:54:16.468Z,9.35
2023-01-03T01:55:16.450Z,9.34
2023-01-03T01:56:16.471Z,9.32
2023-01-03T01:57:16.448Z,9.31
2023-01-03T01:58:16.450Z,9.31
2023-01-03T01:59:16.432Z,9.30
2023-01-03T02:00:16.422Z,9.30
2023-01-03T02:01:16.576Z,9.27
2023-01-03T02:02:16.627Z,9.30
2023-01-03T02:03:16.567Z,9.27
2023-01-03T02:04:16.371Z,9.24
2023-01-03T02:05:16.369Z,9.23
2023-01-03T02:06:16.349Z,9.23
2023-01-03T02:07:16.327Z,9.22
2023-01-03T02:08:16.364Z,9.22
2023-01-03T02:09:16.319Z,9.19
2023-01-03T02:10:16.315Z,9.22
2023-01-03T02:11:16.296Z,9.19
2023-01-03T02:12:16.280Z,9.19
2023-01-03T02:13:16.282Z,9.19
2023-01-03T02:14:16.303Z,9.19
2023-01-03T02:15:16.255Z,9.17
2023-01-03T02:16:16.302Z,9.17
2023-01-03T02:17:16.230Z,9.17
2023-01-03T02:18:16.278Z,9.19
2023-01-03T02:19:16.209Z,9.19
2023-01-03T02:20:16.220Z,9.16
2023-01-03T02:21:19.944Z,9.16
2023-01-03T02:22:16.177Z,9.16
2023-01-03T02:23:16.183Z,9.16
2023-01-03T02:24:16.161Z,9.15
2023-01-03T02:25:16.167Z,9.17
2023-01-03T02:26:16.192Z,9.12
2023-01-03T02:27:16.141Z,9.12
2023-01-03T02:28:16.137Z,9.08
2023-01-03T02:29:16.107Z,9.08
2023-01-03T02:30:16.098Z,9.04
2023-01-03T02:31:16.235Z,9.04
2023-01-03T02:32:16.071Z,9.04
2023-01-03T02:33:16.083Z,9.04
2023-01-03T02:34:16.062Z,9.01
2023-01-03T02:35:16.076Z,9.00
2023-01-03T02:36:16.027Z,8.98
2023-01-03T02:37:16.056Z,8.98
2023-01-03T02:38:16.032Z,8.97
2023-01-03T02:39:19.170Z,8.96
2023-01-03T02:40:16.031Z,8.93
2023-01-03T02:41:15.980Z,8.88
2023-01-03T02:42:15.976Z,8.88
2023-01-03T02:43:15.998Z,8.86
2023-01-03T02:44:15.955Z,8.86
2023-01-03T02:45:15.949Z,8.80
2023-01-03T02:46:15.990Z,8.78
2023-01-03T02:47:15.944Z,8.78
2023-01-03T02:48:15.936Z,8.73
2023-01-03T02:49:15.903Z,8.73
2023-01-03T02:50:15.889Z,8.71
2023-01-03T02:51:15.888Z,8.70
2023-01-03T02:52:15.904Z,8.65
2023-01-03T02:53:15.897Z,8.64
2023-01-03T02:54:15.858Z,8.61
2023-01-03T02:55:15.848Z,8.63
2023-01-03T02:56:15.819Z,8.60
2023-01-03T02:57:15.817Z,8.60
2023-01-03T02:58:15.824Z,8.55
2023-01-03T02:59:15.829Z,8.57
2023-01-03T03:00:15.794Z,8.55
2023-01-03T03:01:15.904Z,8.54
2023-01-03T03:02:15.894Z,8.54
2023-01-03T03:03:15.901Z,8.52
2023-01-03T03:04:15.749Z,8.52
2023-01-03T03:05:15.741Z,8.52
2023-01-03T03:06:15.731Z,8.50
2023-01-03T03:07:15.719Z,8.45
2023-01-03T03:08:15.763Z,8.46
2023-01-03T03:09:15.701Z,8.45
2023-01-03T03:10:15.702Z,8.42
2023-01-03T03:11:15.696Z,8.40
2023-01-03T03:12:15.675Z,8.39
2023-01-03T03:13:15.669Z,8.36
2023-01-03T03:14:15.659Z,8.36
2023-01-03T03:15:15.651Z,8.32
2023-01-03T03:16:15.687Z,8.25
2023-01-03T03:17:15.610Z,8.27
2023-01-03T03:18:15.603Z,8.25
2023-01-03T03:19:15.605Z,8.25
2023-01-03T03:20:15.584Z,8.21
2023-01-03T03:21:15.572Z,8.18
2023-01-03T03:22:15.553Z,8.18
2023-01-03T03:23:15.627Z,8.17
2023-01-03T03:24:15.543Z,8.18
2023-01-03T03:25:15.533Z,8.14
2023-01-03T03:26:15.523Z,8.12
2023-01-03T03:27:15.531Z,8.10
2023-01-03T03:28:15.516Z,8.12
2023-01-03T03:29:15.491Z,8.10
2023-01-03T03:30:15.473Z,8.09
2023-01-03T03:31:15.535Z,8.09
2023-01-03T03:32:15.455Z,8.09
2023-01-03T03:33:15.476Z,8.06
2023-01-03T03:34:15.426Z,8.04
2023-01-03T03:35:15.425Z,8.03
2023-01-03T03:36:15.425Z,8.02
2023-01-03T03:37:15.410Z,7.99
2023-01-03T03:38:15.399Z,8.00
2023-01-03T03:39:15.390Z,7.99
2023-01-03T03:40:15.375Z,7.96
2023-01-03T03:41:15.363Z,7.95
2023-01-03T03:42:15.348Z,7.95
2023-01-03T03:43:15.354Z,7.92
2023-01-03T03:44:15.380Z,7.91
2023-01-03T03:45:15.357Z,7.91
2023-01-03T03:46:15.336Z,7.89
2023-01-03T03:47:15.358Z,7.92
2023-01-03T03:48:15.285Z,7.91
2023-01-03T03:49:15.291Z,7.91
2023-01-03T03:50:15.263Z,7.89
2023-01-03T03:51:15.262Z,7.89
2023-01-03T03:52:15.251Z,7.89
2023-01-03T03:53:15.324Z,7.88
2023-01-03T03:54:15.239Z,7.89
2023-01-03T03:55:15.245Z,7.85
2023-01-03T03:56:15.208Z,7.84
2023-01-03T03:57:15.220Z,7.84
2023-01-03T03:58:15.258Z,7.85
2023-01-03T03:59:15.203Z,7.84
2023-01-03T04:00:15.174Z,7.84
2023-01-03T04:01:15.181Z,7.84
2023-01-03T04:02:15.252Z,7.81
2023-01-03T04:03:15.299Z,7.77
2023-01-03T04:04:15.135Z,7.76
2023-01-03T04:05:15.129Z,7.76
2023-01-03T04:06:15.112Z,7.71
2023-01-03T04:07:15.103Z,7.76
2023-01-03T04:08:15.110Z,7.70
2023-01-03T04:09:15.083Z,7.69
2023-01-03T04:10:15.072Z,7.69
2023-01-03T04:11:15.051Z,7.69
2023-01-03T04:12:15.042Z,7.69
2023-01-03T04:13:15.050Z,7.67
2023-01-03T04:14:15.009Z,7.69
2023-01-03T04:15:15.085Z,7.71
2023-01-03T04:16:15.046Z,7.70
2023-01-03T04:17:14.987Z,7.69
2023-01-03T04:18:14.978Z,7.66
2023-01-03T04:19:14.987Z,7.66
2023-01-03T04:20:14.948Z,7.63
2023-01-03T04:21:20.428Z,7.62
2023-01-03T04:22:14.925Z,7.57
2023-01-03T04:23:14.946Z,7.55
2023-01-03T04:24:14.941Z,7.54
2023-01-03T04:25:15.471Z,7.54
2023-01-03T04:26:14.941Z,7.52
2023-01-03T04:27:14.903Z,7.52
2023-01-03T04:28:14.876Z,7.50
2023-01-03T04:29:14.928Z,7.48
2023-01-03T04:30:14.863Z,7.47
2023-01-03T04:31:14.896Z,7.48
2023-01-03T04:32:14.898Z,7.51
2023-01-03T04:33:14.825Z,7.50
2023-01-03T04:34:14.807Z,7.47
2023-01-03T04:35:14.791Z,7.47
2023-01-03T04:36:14.781Z,7.45
2023-01-03T04:37:14.783Z,7.45
2023-01-03T04:38:14.777Z,7.45
2023-01-03T04:39:14.761Z,7.44
2023-01-03T04:40:14.733Z,7.45
2023-01-03T04:41:14.746Z,7.44
2023-01-03T04:42:14.705Z,7.36
2023-01-03T04:43:14.710Z,7.36
2023-01-03T04:44:14.826Z,7.34
2023-01-03T04:45:14.689Z,7.34
2023-01-03T04:46:14.695Z,7.34
2023-01-03T04:47:14.664Z,7.34
2023-01-03T04:48:14.672Z,7.33
2023-01-03T04:49:14.656Z,7.33
2023-01-03T04:50:14.635Z,7.32
2023-01-03T04:51:14.615Z,7.33
2023-01-03T04:52:14.617Z,7.33
2023-01-03T04:53:14.602Z,7.33
2023-01-03T04:54:14.628Z,7.29
2023-01-03T04:55:14.572Z,7.29
2023-01-03T04:56:14.579Z,7.29
2023-01-03T04:57:14.555Z,7.26
2023-01-03T04:58:14.547Z,7.24
2023-01-03T04:59:14.585Z,7.23
2023-01-03T05:00:14.521Z,7.21
2023-01-03T05:01:14.674Z,7.26
2023-01-03T05:02:14.705Z,7.23
2023-01-03T05:03:14.511Z,7.24
2023-01-03T05:04:14.540Z,7.23
2023-01-03T05:05:14.473Z,7.23
2023-01-03T05:06:14.459Z,7.21
2023-01-03T05:07:14.472Z,7.21
2023-01-03T05:08:14.429Z,7.21
2023-01-03T05:09:14.470Z,7.19
2023-01-03T05:10:14.417Z,7.18
2023-01-03T05:11:14.403Z,7.18
2023-01-03T05:12:14.444Z,7.18
2023-01-03T05:13:14.407Z,7.16
2023-01-03T05:14:14.929Z,7.16
2023-01-03T05:15:14.364Z,7.18
2023-01-03T05:16:14.521Z,7.16
2023-01-03T05:17:14.359Z,7.19
2023-01-03T05:18:14.334Z,7.19
2023-01-03T05:19:14.589Z,7.16
2023-01-03T05:20:14.302Z,7.15
2023-01-03T05:21:14.300Z,7.18
2023-01-03T05:22:14.280Z,7.16
2023-01-03T05:23:14.281Z,7.19
2023-01-03T05:24:14.319Z,7.18
2023-01-03T05:25:14.265Z,7.18
2023-01-03T05:26:14.247Z,7.15
2023-01-03T05:27:14.241Z,7.14
2023-01-03T05:28:17.463Z,7.14
2023-01-03T05:29:14.245Z,7.14
2023-01-03T05:30:14.227Z,7.12
2023-01-03T05:31:14.208Z,7.09
2023-01-03T05:32:14.253Z,7.07
2023-01-03T05:33:14.189Z,7.07
2023-01-03T05:34:14.190Z,7.07
2023-01-03T05:35:14.165Z,7.04
2023-01-03T05:36:16.316Z,7.05
2023-01-03T05:37:14.134Z,7.05
2023-01-03T05:38:14.146Z,7.04
2023-01-03T05:39:14.121Z,7.01
2023-01-03T05:40:14.086Z,7.04
2023-01-03T05:41:14.166Z,7.01
2023-01-03T05:42:14.097Z,7.01
2023-01-03T05:43:14.088Z,7.01
2023-01-03T05:44:14.180Z,7.00
2023-01-03T05:45:14.155Z,7.00
2023-01-03T05:46:14.148Z,7.00
2023-01-03T05:47:14.036Z,6.96
2023-01-03T05:48:14.022Z,6.96
2023-01-03T05:49:14.054Z,6.94
2023-01-03T05:50:13.994Z,6.94
2023-01-03T05:51:14.025Z,6.91
2023-01-03T05:52:13.985Z,6.90
2023-01-03T05:53:13.968Z,6.89
2023-01-03T05:54:13.988Z,6.89
2023-01-03T05:55:13.982Z,6.87
2023-01-03T05:56:13.931Z,6.89
2023-01-03T05:57:13.929Z,6.89
2023-01-03T05:58:13.941Z,6.86
2023-01-03T05:59:13.935Z,6.87
2023-01-03T06:00:13.966Z,6.89
2023-01-03T06:01:13.927Z,6.89
2023-01-03T06:02:14.053Z,6.87
2023-01-03T06:03:13.859Z,6.87
2023-01-03T06:04:14.035Z,6.87
2023-01-03T06:05:13.836Z,6.83
2023-01-03T06:06:13.819Z,6.86
2023-01-03T06:07:13.835Z,6.83
2023-01-03T06:08:13.839Z,6.79
2023-01-03T06:09:13.817Z,6.82
2023-01-03T06:10:13.833Z,6.82
2023-01-03T06:11:13.773Z,6.79
2023-01-03T06:12:13.783Z,6.79
2023-01-03T06:13:13.921Z,6.79
2023-01-03T06:14:13.745Z,6.78
2023-01-03T06:15:13.774Z,6.78
2023-01-03T06:16:13.757Z,6.76
2023-01-03T06:17:13.771Z,6.75
2023-01-03T06:18:13.706Z,6.73
2023-01-03T06:19:13.714Z,6.71
2023-01-03T06:20:13.738Z,6.68
2023-01-03T06:21:13.684Z,6.71
2023-01-03T06:22:13.649Z,6.68
2023-01-03T06:23:13.646Z,6.71
2023-01-03T06:24:13.628Z,6.69
2023-01-03T06:25:13.689Z,6.72
2023-01-03T06:26:13.617Z,6.73
2023-01-03T06:27:13.617Z,6.72
2023-01-03T06:28:13.591Z,6.71
2023-01-03T06:29:13.610Z,6.71
2023-01-03T06:30:13.582Z,6.69
2023-01-03T06:31:13.687Z,6.69
2023-01-03T06:32:13.574Z,6.68
2023-01-03T06:33:13.608Z,6.65
2023-01-03T06:34:13.545Z,6.65
2023-01-03T06:35:13.529Z,6.65
2023-01-03T06:36:13.506Z,6.65
2023-01-03T06:37:13.450Z,6.63
2023-01-03T06:38:13.612Z,6.61
2023-01-03T06:39:13.482Z,6.61
2023-01-03T06:40:13.477Z,6.63
2023-01-03T06:41:13.434Z,6.58
2023-01-03T06:42:13.415Z,6.58
2023-01-03T06:43:13.432Z,6.58
2023-01-03T06:44:13.366Z,6.58
2023-01-03T06:45:13.426Z,6.55
2023-01-03T06:46:13.429Z,6.54
2023-01-03T06:47:13.344Z,6.53
2023-01-03T06:48:13.343Z,6.50
2023-01-03T06:49:13.372Z,6.48
2023-01-03T06:50:13.326Z,6.45
2023-01-03T06:51:13.310Z,6.48
2023-01-03T06:52:13.283Z,6.48
2023-01-03T06:53:13.278Z,6.46
2023-01-03T06:54:13.273Z,6.42
2023-01-03T06:55:13.374Z,6.45
2023-01-03T06:56:13.250Z,6.46
2023-01-03T06:57:26.076Z,6.48
2023-01-03T06:58:13.237Z,6.45
2023-01-03T06:59:13.243Z,6.48
2023-01-03T07:00:13.225Z,6.50
2023-01-03T07:01:13.329Z,6.53
2023-01-03T07:02:13.342Z,6.50
2023-01-03T07:03:13.239Z,6.50
2023-01-03T07:04:13.268Z,6.46
2023-01-03T07:05:13.179Z,6.45
2023-01-03T07:06:13.159Z,6.42
2023-01-03T07:07:13.136Z,6.40
2023-01-03T07:08:13.147Z,6.39
2023-01-03T07:09:13.115Z,6.38
2023-01-03T07:10:13.138Z,6.36
2023-01-03T07:11:13.084Z,6.36
2023-01-03T07:12:13.142Z,6.36
2023-01-03T07:13:13.055Z,6.39
2023-01-03T07:14:13.058Z,6.39
2023-01-03T07:15:13.099Z,6.39
2023-01-03T07:16:13.085Z,6.42
2023-01-03T07:17:13.030Z,6.42
2023-01-03T07:18:13.012Z,6.42
2023-01-03T07:19:13.006Z,6.46
2023-01-03T07:20:13.005Z,6.46
2023-01-03T07:21:13.000Z,6.43
2023-01-03T07:22:12.994Z,6.40
2023-01-03T07:23:12.966Z,6.43
2023-01-03T07:24:12.956Z,6.42
2023-01-03T07:25:12.970Z,6.42
2023-01-03T07:26:12.947Z,6.43
2023-01-03T07:27:12.932Z,6.40
2023-01-03T07:28:12.932Z,6.40
2023-01-03T07:29:12.898Z,6.40
2023-01-03T07:30:12.921Z,6.38
2023-01-03T07:31:12.929Z,6.40
2023-01-03T07:32:12.870Z,6.39
2023-01-03T07:33:12.867Z,6.38
2023-01-03T07:34:12.855Z,6.39
2023-01-03T07:35:12.856Z,6.39
2023-01-03T07:36:12.833Z,6.40
2023-01-03T07:37:12.817Z,6.42
2023-01-03T07:38:12.817Z,6.40
2023-01-03T07:39:12.793Z,6.42
2023-01-03T07:40:12.807Z,6.42
2023-01-03T07:41:12.800Z,6.40
2023-01-03T07:42:12.762Z,6.42
2023-01-03T07:43:12.753Z,6.45
2023-01-03T07:44:12.827Z,6.42
2023-01-03T07:45:12.742Z,6.42
2023-01-03T07:46:12.784Z,6.42
2023-01-03T07:47:12.713Z,6.39
2023-01-03T07:48:12.715Z,6.39
2023-01-03T07:49:12.791Z,6.39
2023-01-03T07:50:12.713Z,6.40
2023-01-03T07:51:12.665Z,6.40
2023-01-03T07:52:12.677Z,6.45
2023-01-03T07:53:12.639Z,6.46
2023-01-03T07:54:12.650Z,6.46
2023-01-03T07:55:12.650Z,6.43
2023-01-03T07:56:13.632Z,6.40
2023-01-03T07:57:12.620Z,6.38
2023-01-03T07:58:12.586Z,6.39
2023-01-03T07:59:12.576Z,6.39
2023-01-03T08:00:12.600Z,6.39
2023-01-03T08:01:12.772Z,6.39
2023-01-03T08:02:12.720Z,6.43
2023-01-03T08:03:12.742Z,6.39
2023-01-03T08:04:12.633Z,6.42
2023-01-03T08:05:12.612Z,6.40
2023-01-03T08:06:12.519Z,6.40
2023-01-03T08:07:12.508Z,6.42
2023-01-03T08:08:12.515Z,6.43
2023-01-03T08:09:12.489Z,6.46
2023-01-03T08:10:12.474Z,6.48
2023-01-03T08:11:12.495Z,6.51
2023-01-03T08:12:12.442Z,6.53
2023-01-03T08:13:12.431Z,6.53
2023-01-03T08:14:12.460Z,6.55
2023-01-03T08:15:12.452Z,6.58
2023-01-03T08:16:12.634Z,6.58
2023-01-03T08:17:12.418Z,6.60
2023-01-03T08:18:12.464Z,6.61
2023-01-03T08:19:12.368Z,6.61
2023-01-03T08:20:12.387Z,6.61
2023-01-03T08:21:12.403Z,6.63
2023-01-03T08:22:12.349Z,6.69
2023-01-03T08:23:12.355Z,6.73
2023-01-03T08:24:12.344Z,6.76
2023-01-03T08:25:12.325Z,6.79
2023-01-03T08:26:12.358Z,6.83
2023-01-03T08:27:12.292Z,6.87
2023-01-03T08:28:12.274Z,6.83
2023-01-03T08:29:12.291Z,6.93
2023-01-03T08:30:12.258Z,6.96
2023-01-03T08:31:12.306Z,7.00
2023-01-03T08:32:12.256Z,7.01
2023-01-03T08:33:12.231Z,7.01
2023-01-03T08:34:18.591Z,7.05
2023-01-03T08:35:12.223Z,7.04
2023-01-03T08:36:12.239Z,7.08
2023-01-03T08:37:12.222Z,7.09
2023-01-03T08:38:12.210Z,7.11
2023-01-03T08:39:12.165Z,7.11
2023-01-03T08:40:12.166Z,7.09
2023-01-03T08:41:12.189Z,7.12
2023-01-03T08:42:12.142Z,7.15
2023-01-03T08:43:12.143Z,7.19
2023-01-03T08:44:12.115Z,7.23
2023-01-03T08:45:12.148Z,7.27
2023-01-03T08:46:12.209Z,7.27
2023-01-03T08:47:12.133Z,7.24
2023-01-03T08:48:12.076Z,7.21
2023-01-03T08:49:12.070Z,7.24
2023-01-03T08:50:12.055Z,7.23
2023-01-03T08:51:12.112Z,7.27
2023-01-03T08:52:12.075Z,7.30
2023-01-03T08:53:12.053Z,7.29
2023-01-03T08:54:12.041Z,7.32
2023-01-03T08:55:12.015Z,7.34
2023-01-03T08:56:12.048Z,7.36
2023-01-03T08:57:11.984Z,7.30
2023-01-03T08:58:12.042Z,7.29
2023-01-03T08:59:11.961Z,7.26
2023-01-03T09:00:12.041Z,7.27
2023-01-03T09:01:12.186Z,7.27
2023-01-03T09:02:12.224Z,7.24
2023-01-03T09:03:12.249Z,7.21
2023-01-03T09:04:11.985Z,7.21
2023-01-03T09:05:11.914Z,7.26
2023-01-03T09:06:11.938Z,7.27
2023-01-03T09:07:11.903Z,7.30
2023-01-03T09:08:11.875Z,7.30
2023-01-03T09:09:11.856Z,7.32
2023-01-03T09:10:11.841Z,7.29
2023-01-03T09:11:11.887Z,7.27
2023-01-03T09:12:11.836Z,7.27
2023-01-03T09:13:11.825Z,7.30
2023-01-03T09:14:11.849Z,7.33
2023-01-03T09:15:11.819Z,7.36
2023-01-03T09:16:11.963Z,7.41
2023-01-03T09:17:11.773Z,7.42
2023-01-03T09:18:11.806Z,7.44
2023-01-03T09:19:11.782Z,7.47
2023-01-03T09:20:11.768Z,7.51
2023-01-03T09:21:11.755Z,7.52
2023-01-03T09:22:11.741Z,7.52
2023-01-03T09:23:11.731Z,7.54
2023-01-03T09:24:11.732Z,7.54
2023-01-03T09:25:11.721Z,7.55
2023-01-03T09:26:11.694Z,7.55
2023-01-03T09:27:11.677Z,7.51
2023-01-03T09:28:11.674Z,7.47
2023-01-03T09:29:11.651Z,7.39
2023-01-03T09:30:11.675Z,7.39
2023-01-03T09:31:11.732Z,7.39
2023-01-03T09:32:11.724Z,7.41
2023-01-03T09:33:11.605Z,7.41
2023-01-03T09:34:11.600Z,7.42
2023-01-03T09:35:12.547Z,7.44
2023-01-03T09:36:11.622Z,7.37
2023-01-03T09:37:11.566Z,7.37
2023-01-03T09:38:11.606Z,7.36
2023-01-03T09:39:11.564Z,7.34
2023-01-03T09:40:11.531Z,7.34
2023-01-03T09:41:11.555Z,7.34
2023-01-03T09:42:11.522Z,7.27
2023-01-03T09:43:11.517Z,7.24
2023-01-03T09:44:11.516Z,7.23
2023-01-03T09:45:11.487Z,7.23
2023-01-03T09:46:11.520Z,7.19
2023-01-03T09:47:11.538Z,7.19
2023-01-03T09:48:11.480Z,7.18
2023-01-03T09:49:11.432Z,7.18
2023-01-03T09:50:31.412Z,7.21
2023-01-03T09:51:25.656Z,7.24
2023-01-03T09:52:11.461Z,7.29
2023-01-03T09:53:11.455Z,7.30
2023-01-03T09:54:11.386Z,7.32
2023-01-03T09:55:11.399Z,7.34
2023-01-03T09:56:11.404Z,7.36
2023-01-03T09:57:11.352Z,7.36
2023-01-03T09:58:11.351Z,7.36
2023-01-03T09:59:11.347Z,7.39
2023-01-03T10:00:11.329Z,7.36
2023-01-03T10:01:11.467Z,7.34
2023-01-03T10:02:11.598Z,7.33
2023-01-03T10:03:11.404Z,7.34
2023-01-03T10:04:11.285Z,7.34
2023-01-03T10:05:11.272Z,7.39
2023-01-03T10:06:11.273Z,7.41
2023-01-03T10:07:11.283Z,7.39
2023-01-03T10:08:11.321Z,7.39
2023-01-03T10:09:11.243Z,7.36
2023-01-03T10:10:14.480Z,7.37
2023-01-03T10:11:11.207Z,7.30
2023-01-03T10:12:11.218Z,7.29
2023-01-03T10:13:14.781Z,7.29
2023-01-03T10:14:11.195Z,7.27
2023-01-03T10:15:11.174Z,7.24
2023-01-03T10:16:11.202Z,7.24
2023-01-03T10:17:11.220Z,7.26
2023-01-03T10:18:11.138Z,7.29
2023-01-03T10:19:11.161Z,7.27
2023-01-03T10:20:11.118Z,7.32
2023-01-03T10:21:11.118Z,7.32
2023-01-03T10:22:11.205Z,7.30
2023-01-03T10:23:11.140Z,7.32
2023-01-03T10:24:11.089Z,7.34
2023-01-03T10:25:11.065Z,7.32
2023-01-03T10:26:11.078Z,7.29
2023-01-03T10:27:11.048Z,7.29
2023-01-03T10:28:11.052Z,7.29
2023-01-03T10:29:11.049Z,7.27
2023-01-03T10:30:11.008Z,7.30
2023-01-03T10:31:11.027Z,7.32
2023-01-03T10:32:11.079Z,7.33
2023-01-03T10:33:11.011Z,7.39
2023-01-03T10:34:11.000Z,7.44
2023-01-03T10:35:10.955Z,7.47
2023-01-03T10:36:10.947Z,7.52
2023-01-03T10:37:10.931Z,7.55
2023-01-03T10:38:11.038Z,7.58
2023-01-03T10:39:10.937Z,7.57
2023-01-03T10:40:10.920Z,7.52
2023-01-03T10:41:10.898Z,7.50
2023-01-03T10:42:10.967Z,7.47
2023-01-03T10:43:10.885Z,7.42
2023-01-03T10:44:10.873Z,7.37
2023-01-03T10:45:10.849Z,7.39
2023-01-03T10:46:10.893Z,7.36
2023-01-03T10:47:10.883Z,7.37
2023-01-03T10:48:10.834Z,7.41
2023-01-03T10:49:28.331Z,7.42
2023-01-03T10:50:10.835Z,7.50
2023-01-03T10:51:10.791Z,7.58
2023-01-03T10:52:10.810Z,7.73
2023-01-03T10:53:10.776Z,7.74
2023-01-03T10:54:10.763Z,7.77
2023-01-03T10:55:10.752Z,7.85
2023-01-03T10:56:10.782Z,7.92
2023-01-03T10:57:10.764Z,7.92
2023-01-03T10:58:10.768Z,8.04
2023-01-03T10:59:10.699Z,8.10
2023-01-03T11:00:10.703Z,8.18
2023-01-03T11:01:10.732Z,8.20
2023-01-03T11:02:10.938Z,8.25
2023-01-03T11:03:10.930Z,8.28
2023-01-03T11:04:10.659Z,8.34
2023-01-03T11:05:10.715Z,8.37
2023-01-03T11:06:10.647Z,8.34
2023-01-03T11:07:10.677Z,8.32
2023-01-03T11:08:10.628Z,8.32
2023-01-03T11:09:10.617Z,8.42
2023-01-03T11:10:10.589Z,8.52
2023-01-03T11:11:10.584Z,8.54
2023-01-03T11:12:10.581Z,8.58
2023-01-03T11:13:10.618Z,8.49
2023-01-03T11:14:10.566Z,8.46
2023-01-03T11:15:10.556Z,8.42
2023-01-03T11:16:10.574Z,8.52
2023-01-03T11:17:10.630Z,8.63
2023-01-03T11:18:10.524Z,8.65
2023-01-03T11:19:10.495Z,8.73
2023-01-03T11:20:10.507Z,8.78
2023-01-03T11:21:10.497Z,8.78
2023-01-03T11:22:10.521Z,8.71
2023-01-03T11:23:10.457Z,8.65
2023-01-03T11:24:10.453Z,8.54
2023-01-03T11:25:10.437Z,8.46
2023-01-03T11:26:10.419Z,8.40
2023-01-03T11:27:10.447Z,8.37
2023-01-03T11:28:15.743Z,8.32
2023-01-03T11:29:10.460Z,8.27
2023-01-03T11:30:10.399Z,8.34
2023-01-03T11:31:10.383Z,8.40
2023-01-03T11:32:10.485Z,8.36
2023-01-03T11:33:10.357Z,8.40
2023-01-03T11:34:10.343Z,8.40
2023-01-03T11:35:25.845Z,8.37
2023-01-03T11:36:10.324Z,8.40
2023-01-03T11:37:10.359Z,8.42
2023-01-03T11:38:10.291Z,8.42
2023-01-03T11:39:15.356Z,8.43
2023-01-03T11:40:10.282Z,8.32
2023-01-03T11:41:10.290Z,8.25
2023-01-03T11:42:10.273Z,8.17
2023-01-03T11:43:10.253Z,8.06
2023-01-03T11:44:10.237Z,7.99
2023-01-03T11:45:10.266Z,7.96
2023-01-03T11:46:10.263Z,7.95
2023-01-03T11:47:10.269Z,7.94
2023-01-03T11:48:10.200Z,7.96
2023-01-03T11:49:10.208Z,7.99
2023-01-03T11:50:10.173Z,7.95
2023-01-03T11:51:10.176Z,7.92
2023-01-03T11:52:10.175Z,7.94
2023-01-03T11:53:10.176Z,7.92
2023-01-03T11:54:10.122Z,7.95
2023-01-03T11:55:10.148Z,7.96
2023-01-03T11:56:10.129Z,8.02
2023-01-03T11:57:10.155Z,8.07
2023-01-03T11:58:10.104Z,8.09
2023-01-03T11:59:10.085Z,8.10
2023-01-03T12:00:10.108Z,8.12
2023-01-03T12:01:10.095Z,8.17
2023-01-03T12:02:10.235Z,8.27
2023-01-03T12:03:10.317Z,8.28
2023-01-03T12:04:10.162Z,8.24
2023-01-03T12:05:10.028Z,8.25
2023-01-03T12:06:10.008Z,8.17
2023-01-03T12:07:45.714Z,8.17
2023-01-03T12:08:10.029Z,8.14
2023-01-03T12:09:10.024Z,8.14
2023-01-03T12:10:09.984Z,8.18
2023-01-03T12:11:09.958Z,8.13
2023-01-03T12:12:10.005Z,8.14
2023-01-03T12:13:09.991Z,8.14
2023-01-03T12:14:09.926Z,8.13
2023-01-03T12:15:09.920Z,8.12
2023-01-03T12:16:09.972Z,8.07
2023-01-03T12:17:09.973Z,8.07
2023-01-03T12:18:09.888Z,8.06
2023-01-03T12:19:12.620Z,8.07
2023-01-03T12:20:09.896Z,8.09
2023-01-03T12:21:09.888Z,8.17
2023-01-03T12:22:09.869Z,8.20
2023-01-03T12:23:09.917Z,8.25
2023-01-03T12:24:09.838Z,8.29
2023-01-03T12:25:09.812Z,8.28
2023-01-03T12:26:09.850Z,8.28
2023-01-03T12:27:09.864Z,8.28
2023-01-03T12:28:09.788Z,8.18
2023-01-03T12:29:09.773Z,8.17
2023-01-03T12:30:09.771Z,8.13
2023-01-03T12:31:09.832Z,8.17
2023-01-03T12:32:09.796Z,8.22
2023-01-03T12:33:09.752Z,8.24
2023-01-03T12:34:09.716Z,8.25
2023-01-03T12:35:09.754Z,8.21
2023-01-03T12:36:09.727Z,8.14
2023-01-03T12:37:09.737Z,8.12
2023-01-03T12:38:09.720Z,8.04
2023-01-03T12:39:09.677Z,8.04
2023-01-03T12:40:09.659Z,8.00
2023-01-03T12:41:09.674Z,7.94
2023-01-03T12:42:09.646Z,7.96
2023-01-03T12:43:09.677Z,7.95
2023-01-03T12:44:09.630Z,7.94
2023-01-03T12:45:09.626Z,7.95
2023-01-03T12:46:12.939Z,7.96
2023-01-03T12:47:09.701Z,8.00
2023-01-03T12:48:09.587Z,8.03
2023-01-03T12:49:09.563Z,8.09
2023-01-03T12:50:09.551Z,8.13
2023-01-03T12:51:09.538Z,8.14
2023-01-03T12:52:15.014Z,8.22
2023-01-03T12:53:09.562Z,8.31
2023-01-03T12:54:09.509Z,8.37
2023-01-03T12:55:09.528Z,8.45
2023-01-03T12:56:09.511Z,8.45
2023-01-03T12:57:09.544Z,8.45
2023-01-03T12:58:09.461Z,8.43
2023-01-03T12:59:09.473Z,8.43
2023-01-03T13:00:09.484Z,8.39
2023-01-03T13:01:09.614Z,8.39
2023-01-03T13:02:09.584Z,8.37
2023-01-03T13:03:09.664Z,8.37
2023-01-03T13:04:09.470Z,8.37
2023-01-03T13:05:09.411Z,8.37
2023-01-03T13:06:09.404Z,8.37
2023-01-03T13:07:09.413Z,8.39
2023-01-03T13:08:09.418Z,8.37
2023-01-03T13:09:09.351Z,8.36
2023-01-03T13:10:09.447Z,8.36
2023-01-03T13:11:09.333Z,8.40
2023-01-03T13:12:09.335Z,8.34
2023-01-03T13:13:09.318Z,8.34
2023-01-03T13:14:09.356Z,8.31
2023-01-03T13:15:09.347Z,8.24
2023-01-03T13:16:09.326Z,8.21
2023-01-03T13:17:09.317Z,8.21